Time;durP1;ratioP1;P1;durP2;ratioP2;P2;SDS_P1;SDS_P2;PMS_P1;PMS_P2;Temp;Humidity;BMP_temperature;BMP_pressure;BME280_temperature;BME280_humidity;BME280_pressure;Samples;Min_cycle;Max_cycle;Signal;HPM_P1;HPM_P2
2021/04/25 00:01:12;;;;;;;14.93;5.15;;;;;;;6.64;69.94;102139.94;5053131;28;20115;-80
2021/04/25 00:03:37;;;;;;;14.05;5.55;;;;;;;6.73;69.91;102139.69;5048813;28;20025;-80
2021/04/25 00:06:03;;;;;;;17.13;5.20;;;;;;;6.70;69.75;102147.78;5066827;28;20041;-80
2021/04/25 00:08:29;;;;;;;15.50;5.38;;;;;;;6.63;70.04;102142.63;5047850;28;20045;-81
2021/04/25 00:10:54;;;;;;;11.50;4.72;;;;;;;6.57;70.76;102137.44;5051990;28;20040;-81
2021/04/25 00:13:20;;;;;;;12.73;5.75;;;;;;;6.50;71.22;102142.94;5053979;28;20025;-81
2021/04/25 00:15:45;;;;;;;14.63;6.30;;;;;;;6.46;71.42;102135.94;5032046;28;20567;-81
2021/04/25 00:18:11;;;;;;;14.57;5.32;;;;;;;6.40;71.50;102133.44;5050269;28;20414;-80
2021/04/25 00:20:36;;;;;;;15.00;5.28;;;;;;;6.43;71.55;102143.13;5036221;28;20025;-81
2021/04/25 00:23:02;;;;;;;23.05;5.38;;;;;;;6.35;71.92;102148.66;5052738;28;20025;-80
2021/04/25 00:25:27;;;;;;;18.40;6.55;;;;;;;6.33;71.98;102134.47;5056909;28;20374;-81
2021/04/25 00:27:53;;;;;;;14.23;5.88;;;;;;;6.31;71.99;102130.97;5056574;28;20029;-80
2021/04/25 00:30:20;;;;;;;16.60;6.55;;;;;;;6.24;72.37;102134.69;5049609;28;20047;-81
2021/04/25 00:32:46;;;;;;;15.25;6.50;;;;;;;6.18;72.66;102118.84;5049530;28;20032;-80
2021/04/25 00:35:13;;;;;;;14.98;5.75;;;;;;;6.17;72.70;102130.44;5049972;28;20045;-81
2021/04/25 00:37:39;;;;;;;16.42;5.95;;;;;;;6.14;73.13;102127.81;5031979;28;20096;-80
2021/04/25 00:40:06;;;;;;;17.42;5.88;;;;;;;6.15;73.15;102123.38;5052839;28;20480;-80
2021/04/25 00:42:32;;;;;;;17.38;5.78;;;;;;;6.11;73.50;102121.72;5032817;28;20509;-81
2021/04/25 00:44:58;;;;;;;19.10;6.90;;;;;;;6.15;73.76;102118.94;5031343;28;20044;-80
2021/04/25 00:47:23;;;;;;;13.45;5.90;;;;;;;6.12;73.74;102118.09;5050828;28;20028;-81
2021/04/25 00:49:49;;;;;;;14.80;5.90;;;;;;;6.09;74.09;102119.94;5049136;28;20037;-80
2021/04/25 00:52:14;;;;;;;14.02;6.60;;;;;;;6.06;74.43;102116.47;5032804;28;20041;-80
2021/04/25 00:54:41;;;;;;;13.07;5.90;;;;;;;6.04;74.33;102116.53;5057821;28;20463;-81
2021/04/25 00:57:07;;;;;;;12.75;6.53;;;;;;;5.99;74.75;102110.41;5050602;28;20025;-80
2021/04/25 00:59:33;;;;;;;13.63;5.65;;;;;;;5.98;74.76;102122.00;5058926;28;20075;-80
2021/04/25 01:01:58;;;;;;;12.98;6.10;;;;;;;5.95;74.99;102127.38;5053366;28;20067;-80
2021/04/25 01:04:24;;;;;;;14.93;5.40;;;;;;;5.93;74.99;102130.97;5055022;28;20020;-81
2021/04/25 01:06:49;;;;;;;16.02;6.13;;;;;;;5.93;75.04;102128.31;5050656;28;20542;-81
2021/04/25 01:09:15;;;;;;;19.85;6.47;;;;;;;5.93;75.07;102134.53;5052513;28;20059;-80
2021/04/25 01:11:41;;;;;;;14.93;6.15;;;;;;;5.85;75.41;102124.94;5051737;28;20130;-80
2021/04/25 01:14:06;;;;;;;14.55;6.43;;;;;;;5.84;75.56;102120.50;5054611;28;20389;-81
2021/04/25 01:16:32;;;;;;;13.63;6.25;;;;;;;5.72;76.26;102121.66;5041146;28;20063;-80
2021/04/25 01:18:57;;;;;;;15.73;6.68;;;;;;;5.81;75.97;102113.44;5053021;28;20092;-80
2021/04/25 01:21:23;;;;;;;22.30;7.80;;;;;;;5.67;76.23;102110.22;5034727;28;20040;-82
2021/04/25 01:23:49;;;;;;;14.18;6.18;;;;;;;5.60;76.84;102117.47;5057485;28;20021;-80
2021/04/25 01:26:15;;;;;;;18.45;7.60;;;;;;;5.65;76.56;102112.94;5049728;28;20547;-79
2021/04/25 01:28:41;;;;;;;16.35;7.03;;;;;;;5.69;76.63;102119.03;5053872;28;20060;-80
2021/04/25 01:31:07;;;;;;;16.80;6.03;;;;;;;5.55;77.26;102116.72;5052171;28;20378;-80
2021/04/25 01:33:33;;;;;;;19.60;6.70;;;;;;;5.50;77.38;102123.88;5056297;28;20055;-80
2021/04/25 01:36:00;;;;;;;17.35;7.32;;;;;;;5.42;77.73;102123.19;5050604;28;20718;-79
2021/04/25 01:38:26;;;;;;;18.73;6.40;;;;;;;5.39;78.09;102119.69;5050319;28;20029;-81
2021/04/25 01:40:51;;;;;;;19.02;6.63;;;;;;;5.42;78.10;102117.00;5051160;28;20102;-79
2021/04/25 01:43:17;;;;;;;19.35;7.57;;;;;;;5.32;78.34;102120.72;5051469;28;20032;-80
2021/04/25 01:45:42;;;;;;;15.23;6.50;;;;;;;5.25;78.86;102117.31;5050344;28;20048;-80
2021/04/25 01:48:08;;;;;;;17.27;7.18;;;;;;;5.25;78.98;102119.97;5052723;28;20480;-82
2021/04/25 01:50:35;;;;;;;19.13;7.13;;;;;;;5.26;78.99;102116.41;5046991;28;20047;-80
2021/04/25 01:53:01;;;;;;;20.48;7.10;;;;;;;5.20;79.25;102113.88;5051770;28;20033;-83
2021/04/25 01:55:28;;;;;;;21.77;9.20;;;;;;;5.20;79.36;102124.50;5049079;28;20037;-81
2021/04/25 01:57:54;;;;;;;20.55;6.47;;;;;;;5.18;79.71;102121.91;5039526;28;20063;-79
2021/04/25 02:00:31;;;;;;;20.75;7.43;;;;;;;5.19;79.35;102128.97;5053577;28;20044;-80
2021/04/25 02:02:57;;;;;;;16.63;7.03;;;;;;;5.15;79.65;102131.72;5050200;28;20031;-80
2021/04/25 02:05:24;;;;;;;18.33;6.97;;;;;;;5.11;80.15;102130.03;5033158;28;20028;-81
2021/04/25 02:07:50;;;;;;;17.67;7.72;;;;;;;5.13;80.06;102128.19;5053290;28;20094;-80
2021/04/25 02:10:17;;;;;;;22.55;7.97;;;;;;;5.06;79.87;102121.28;5033363;28;20037;-80
2021/04/25 02:12:42;;;;;;;18.23;7.47;;;;;;;5.04;80.09;102129.28;5054056;28;20037;-80
2021/04/25 02:15:09;;;;;;;18.83;7.13;;;;;;;4.97;80.45;102130.28;5032975;28;20490;-80
2021/04/25 02:17:34;;;;;;;20.73;8.05;;;;;;;4.97;80.23;102135.63;5053681;28;20036;-80
2021/04/25 02:20:00;;;;;;;21.40;7.55;;;;;;;4.98;80.03;102131.16;5053172;28;20033;-80
2021/04/25 02:22:26;;;;;;;17.35;7.35;;;;;;;4.93;80.17;102141.03;5044281;28;20374;-79
2021/04/25 02:24:51;;;;;;;21.13;7.32;;;;;;;4.89;80.56;102141.06;5050689;28;20032;-80
2021/04/25 02:27:17;;;;;;;15.30;7.30;;;;;;;4.84;80.60;102132.31;5049434;28;20036;-78
2021/04/25 02:29:43;;;;;;;16.33;7.32;;;;;;;4.81;80.76;102140.31;5052520;28;20496;-80
2021/04/25 02:32:08;;;;;;;20.35;8.85;;;;;;;4.79;80.96;102143.94;5053069;28;20055;-80
2021/04/25 02:34:33;;;;;;;18.70;8.20;;;;;;;4.76;81.30;102146.63;5055163;28;20037;-80
2021/04/25 02:36:59;;;;;;;20.02;8.30;;;;;;;4.77;81.02;102135.09;5033235;28;20735;-80
2021/04/25 02:39:25;;;;;;;21.95;8.07;;;;;;;4.72;81.44;102126.31;5048898;28;20029;-80
2021/04/25 02:41:51;;;;;;;18.30;7.50;;;;;;;4.72;81.46;102131.63;5046512;28;20033;-80
2021/04/25 02:44:16;;;;;;;17.92;7.72;;;;;;;4.63;81.83;102132.66;5048780;28;20071;-81
2021/04/25 02:46:41;;;;;;;18.05;6.70;;;;;;;4.59;82.14;102127.44;5036714;28;20130;-80
2021/04/25 02:49:07;;;;;;;16.42;7.03;;;;;;;4.61;82.46;102128.28;5050460;28;20086;-78
2021/04/25 02:51:33;;;;;;;23.73;8.65;;;;;;;4.57;82.48;102131.91;5049588;28;20032;-80
2021/04/25 02:53:59;;;;;;;15.43;7.30;;;;;;;4.55;82.44;102129.28;5049636;28;20035;-79
2021/04/25 02:56:24;;;;;;;21.30;8.38;;;;;;;4.49;82.74;102129.38;5049280;28;20037;-79
2021/04/25 02:58:49;;;;;;;20.77;7.65;;;;;;;4.48;82.90;102135.59;5031764;28;20078;-79
2021/04/25 03:01:15;;;;;;;22.58;8.98;;;;;;;4.46;82.73;102129.41;5034700;28;20078;-81
2021/04/25 03:03:40;;;;;;;17.95;8.52;;;;;;;4.41;83.00;102129.50;5032463;28;20075;-79
2021/04/25 03:06:06;;;;;;;22.88;8.45;;;;;;;4.41;83.11;102137.47;5049814;28;20060;-80
2021/04/25 03:08:31;;;;;;;23.10;9.18;;;;;;;4.36;83.25;102127.81;5046730;28;20564;-81
2021/04/25 03:10:57;;;;;;;24.33;9.48;;;;;;;4.34;83.62;102133.16;5049305;28;20036;-79
2021/04/25 03:13:22;;;;;;;16.05;7.90;;;;;;;4.30;83.88;102128.81;5050194;28;20033;-81
2021/04/25 03:15:48;;;;;;;17.50;7.88;;;;;;;4.27;83.97;102123.53;5049366;28;20063;-81
2021/04/25 03:18:13;;;;;;;26.30;8.52;;;;;;;4.27;84.10;102127.97;5049941;28;20051;-79
2021/04/25 03:20:39;;;;;;;23.45;9.55;;;;;;;4.25;84.30;102124.47;5042854;28;20032;-80
2021/04/25 03:23:04;;;;;;;20.67;7.68;;;;;;;4.21;84.47;102125.41;5048376;28;20071;-80
2021/04/25 03:25:30;;;;;;;17.90;7.85;;;;;;;4.19;84.69;102121.91;5032205;28;20477;-81
2021/04/25 03:27:55;;;;;;;23.60;8.70;;;;;;;4.26;84.48;102120.91;5050101;28;20028;-80
2021/04/25 03:30:21;;;;;;;21.88;9.60;;;;;;;4.21;84.95;102128.06;5031450;28;20028;-80
2021/04/25 03:32:46;;;;;;;19.95;8.45;;;;;;;4.18;85.02;102130.78;5027697;28;20112;-80
2021/04/25 03:35:14;;;;;;;20.23;8.60;;;;;;;4.17;85.67;102134.34;5033507;28;20456;-81
2021/04/25 03:37:40;;;;;;;25.10;8.57;;;;;;;4.16;85.83;102136.09;5045600;28;20037;-80
2021/04/25 03:40:08;;;;;;;21.35;8.40;;;;;;;4.18;86.42;102136.97;5048964;28;20037;-80
2021/04/25 03:42:34;;;;;;;17.85;7.50;;;;;;;4.23;86.19;102134.22;5041440;28;20495;-80
2021/04/25 03:45:00;;;;;;;21.38;8.57;;;;;;;4.26;86.46;102131.53;5047341;28;20116;-80
2021/04/25 03:47:26;;;;;;;20.10;8.20;;;;;;;4.37;86.46;102129.59;5032228;28;20033;-80
2021/04/25 03:49:51;;;;;;;20.55;8.55;;;;;;;4.42;86.23;102125.06;5048083;28;20036;-80
2021/04/25 03:52:16;;;;;;;20.98;8.23;;;;;;;4.35;86.20;102132.25;5046815;28;20037;-80
2021/04/25 03:54:42;;;;;;;21.02;9.05;;;;;;;4.31;86.33;102119.94;5065246;28;20045;-80
2021/04/25 03:57:08;;;;;;;18.75;8.32;;;;;;;4.36;85.94;102134.03;5030747;28;20017;-82
2021/04/25 03:59:34;;;;;;;28.75;11.07;;;;;;;4.41;85.80;102131.28;5049727;28;20029;-80
2021/04/25 04:02:00;;;;;;;30.65;11.02;;;;;;;4.34;86.28;102129.63;5044908;28;20040;-83
2021/04/25 04:04:25;;;;;;;22.25;9.50;;;;;;;4.32;86.56;102131.44;5049826;28;20050;-81
2021/04/25 04:06:51;;;;;;;21.30;9.23;;;;;;;4.35;86.36;102142.00;5053442;28;20064;-80
2021/04/25 04:09:18;;;;;;;20.38;8.80;;;;;;;4.35;86.23;102142.00;5032790;28;20087;-84
2021/04/25 04:11:44;;;;;;;23.70;8.48;;;;;;;4.40;86.29;102135.72;5044736;28;20044;-79
2021/04/25 04:14:10;;;;;;;20.17;7.72;;;;;;;4.37;86.28;102140.22;5031686;28;20063;-82
2021/04/25 04:16:35;;;;;;;22.15;7.93;;;;;;;4.34;86.52;102140.25;5030894;28;20037;-79
2021/04/25 04:19:01;;;;;;;19.60;8.25;;;;;;;4.31;86.67;102142.97;5049362;28;20064;-83
2021/04/25 04:21:26;;;;;;;26.23;9.02;;;;;;;4.33;86.43;102142.03;5053703;28;20053;-81
2021/04/25 04:23:52;;;;;;;22.50;8.73;;;;;;;4.30;86.57;102143.88;5048055;28;20156;-80
2021/04/25 04:26:17;;;;;;;21.17;8.48;;;;;;;4.26;86.79;102137.72;5031766;28;20124;-80
2021/04/25 04:28:43;;;;;;;17.70;7.43;;;;;;;4.23;86.85;102136.91;5049124;28;20061;-80
2021/04/25 04:31:08;;;;;;;24.13;9.15;;;;;;;4.22;86.76;102141.34;5047014;28;20036;-83
2021/04/25 04:33:35;;;;;;;18.02;8.18;;;;;;;4.22;86.63;102140.44;5047837;28;20075;-82
2021/04/25 04:36:03;;;;;;;24.17;7.72;;;;;;;4.20;86.86;102140.47;5053386;28;20040;-83
2021/04/25 04:38:28;;;;;;;26.40;9.25;;;;;;;4.21;87.12;102133.38;5052340;28;20024;-80
2021/04/25 04:40:54;;;;;;;21.73;8.25;;;;;;;4.19;87.18;102129.88;5036319;28;20047;-80
2021/04/25 04:43:19;;;;;;;23.05;9.27;;;;;;;4.19;87.60;102132.53;5048117;28;20044;-81
2021/04/25 04:45:44;;;;;;;17.70;8.73;;;;;;;4.23;87.44;102134.22;5051642;28;20036;-80
2021/04/25 04:48:10;;;;;;;23.65;8.68;;;;;;;4.31;87.72;102137.66;5055584;28;20034;-81
2021/04/25 04:50:35;;;;;;;19.65;8.75;;;;;;;4.28;87.22;102137.69;5053258;28;20032;-80
2021/04/25 04:53:01;;;;;;;25.95;8.20;;;;;;;4.29;87.21;102142.13;5052172;28;20032;-80
2021/04/25 04:55:26;;;;;;;29.25;9.23;;;;;;;4.30;87.13;102143.88;5053408;28;20029;-80
2021/04/25 04:57:52;;;;;;;27.30;9.18;;;;;;;4.38;86.62;102137.50;5051841;28;20430;-80
2021/04/25 05:00:17;;;;;;;19.65;8.32;;;;;;;4.31;86.75;102143.84;5051344;28;20033;-80
2021/04/25 05:02:43;;;;;;;21.48;8.55;;;;;;;4.33;86.82;102147.34;5050323;28;20108;-80
2021/04/25 05:05:09;;;;;;;24.67;9.57;;;;;;;4.40;86.72;102148.13;5051515;28;20615;-81
2021/04/25 05:07:35;;;;;;;21.60;9.73;;;;;;;4.38;86.73;102141.97;5036209;28;20108;-80
2021/04/25 05:10:00;;;;;;;23.75;9.98;;;;;;;4.50;87.39;102140.91;5033667;28;20036;-80
2021/04/25 05:12:27;;;;;;;26.35;9.23;;;;;;;4.49;87.64;102150.66;5038204;28;20401;-80
2021/04/25 05:14:52;;;;;;;31.50;10.95;;;;;;;4.46;87.21;102151.56;5051214;28;20404;-79
2021/04/25 05:17:18;;;;;;;22.73;8.55;;;;;;;4.59;87.13;102154.91;5051936;28;20116;-80
2021/04/25 05:19:43;;;;;;;26.13;10.15;;;;;;;4.60;86.28;102162.00;5052184;28;20432;-80
2021/04/25 05:22:09;;;;;;;27.63;9.63;;;;;;;4.60;86.44;102163.75;5051847;28;20028;-80
2021/04/25 05:24:34;;;;;;;22.75;9.00;;;;;;;4.66;86.32;102164.53;5051386;28;20071;-81
2021/04/25 05:27:00;;;;;;;21.17;8.95;;;;;;;4.71;86.15;102157.34;5053517;28;20079;-80
2021/04/25 05:29:26;;;;;;;24.00;8.77;;;;;;;4.76;86.54;102160.81;5052634;28;20032;-80
2021/04/25 05:31:52;;;;;;;24.00;9.07;;;;;;;4.79;86.56;102160.78;5034007;28;20043;-80
2021/04/25 05:34:17;;;;;;;24.10;8.82;;;;;;;4.79;86.37;102163.44;5039132;28;20036;-80
2021/04/25 05:36:43;;;;;;;24.25;8.60;;;;;;;4.77;85.77;102167.00;5050454;28;20039;-80
2021/04/25 05:39:08;;;;;;;26.08;9.35;;;;;;;4.74;86.20;102162.63;5051330;28;20044;-80
2021/04/25 05:41:34;;;;;;;19.58;8.60;;;;;;;4.80;86.01;102167.84;5055391;28;20120;-80
2021/04/25 05:43:59;;;;;;;25.50;9.32;;;;;;;4.89;86.29;102173.00;5051436;28;20064;-80
2021/04/25 05:46:25;;;;;;;24.02;9.45;;;;;;;4.96;85.18;102172.88;5030446;28;20053;-80
2021/04/25 05:48:50;;;;;;;18.27;8.30;;;;;;;4.99;85.94;102179.06;5051931;28;21166;-80
2021/04/25 05:51:18;;;;;;;22.65;9.65;;;;;;;5.14;86.86;102177.88;5037301;28;20040;-80
2021/04/25 05:53:43;;;;;;;19.48;8.70;;;;;;;5.17;86.99;102181.38;5051083;28;20106;-80
2021/04/25 05:56:09;;;;;;;18.95;8.23;;;;;;;5.16;86.60;102186.72;5049923;28;20064;-80
2021/04/25 05:58:35;;;;;;;20.13;8.38;;;;;;;5.19;86.19;102190.19;5050824;28;20386;-83
2021/04/25 06:01:00;;;;;;;26.60;9.35;;;;;;;5.33;85.04;102187.28;5052050;28;20032;-83
2021/04/25 06:03:29;;;;;;;23.77;9.02;;;;;;;5.27;84.95;102192.72;5050494;28;20032;-80
2021/04/25 06:05:55;;;;;;;26.60;9.10;;;;;;;5.31;85.03;102196.22;5061471;28;20048;-81
2021/04/25 06:08:20;;;;;;;23.23;8.77;;;;;;;5.46;85.29;102194.13;5060874;28;20044;-80
2021/04/25 06:10:46;;;;;;;19.80;9.00;;;;;;;5.51;82.44;102192.22;5050621;28;20028;-80
2021/04/25 06:13:11;;;;;;;25.85;8.50;;;;;;;5.45;81.75;102195.00;5053185;28;20036;-80
2021/04/25 06:15:37;;;;;;;22.95;9.60;;;;;;;5.51;81.79;102199.34;5039268;28;20102;-83
2021/04/25 06:18:03;;;;;;;20.63;9.30;;;;;;;5.50;81.01;102203.78;5049713;28;20051;-80
2021/04/25 06:20:30;;;;;;;22.02;10.02;;;;;;;5.51;80.53;102194.00;5032775;28;20029;-80
2021/04/25 06:22:56;;;;;;;26.15;9.68;;;;;;;5.65;80.60;102198.16;5063005;28;20452;-80
2021/04/25 06:25:21;;;;;;;22.45;8.90;;;;;;;5.74;79.82;102201.56;5049302;28;20507;-81
2021/04/25 06:27:47;;;;;;;23.88;8.35;;;;;;;5.72;79.61;102206.03;5051468;28;20032;-80
2021/04/25 06:30:14;;;;;;;15.30;7.68;;;;;;;5.74;80.32;102198.91;5053163;28;20029;-82
2021/04/25 06:32:40;;;;;;;24.30;7.82;;;;;;;5.81;79.37;102195.16;5053456;28;20635;-82
2021/04/25 06:35:07;;;;;;;20.35;9.52;;;;;;;5.93;79.26;102200.28;5052287;28;20052;-80
2021/04/25 06:37:33;;;;;;;20.48;9.40;;;;;;;5.93;78.92;102197.59;5051931;28;20047;-81
2021/04/25 06:39:58;;;;;;;19.27;9.18;;;;;;;6.01;78.54;102206.31;5055868;28;20401;-82
2021/04/25 06:42:24;;;;;;;18.75;7.25;;;;;;;6.18;77.21;102204.16;5053652;28;20118;-81
2021/04/25 06:44:49;;;;;;;24.88;9.32;;;;;;;6.06;78.00;102204.44;5053236;28;20119;-82
2021/04/25 06:47:14;;;;;;;20.08;9.15;;;;;;;6.15;78.74;102204.25;5052419;28;20040;-82
2021/04/25 06:49:42;;;;;;;20.88;9.15;;;;;;;6.15;78.44;102198.03;5036503;28;20036;-81
2021/04/25 06:52:11;;;;;;;21.98;7.75;;;;;;;6.18;77.48;102204.16;5051977;28;20436;-82
2021/04/25 06:54:37;;;;;;;23.33;7.97;;;;;;;6.38;76.24;102217.03;5050715;28;20021;-81
2021/04/25 06:57:02;;;;;;;31.95;12.75;;;;;;;6.37;74.69;102220.63;5048718;28;20445;-81
2021/04/25 06:59:27;;;;;;;27.48;9.35;;;;;;;6.33;74.65;102213.59;5040527;28;20088;-81
2021/04/25 07:01:53;;;;;;;20.83;8.38;;;;;;;6.44;75.50;102209.78;5050716;28;20445;-81
2021/04/25 07:04:19;;;;;;;20.98;9.77;;;;;;;6.50;75.11;102217.63;5055258;28;20056;-80
2021/04/25 07:06:44;;;;;;;17.27;7.72;;;;;;;6.46;74.75;102215.09;5051783;28;20367;-81
2021/04/25 07:09:10;;;;;;;17.70;7.40;;;;;;;6.57;73.60;102217.50;5053653;28;20035;-81
2021/04/25 07:11:35;;;;;;;20.38;9.65;;;;;;;6.66;72.88;102226.16;5040544;28;20039;-80
2021/04/25 07:14:01;;;;;;;22.60;9.80;;;;;;;6.64;72.91;102224.44;5052289;28;20370;-82
2021/04/25 07:16:26;;;;;;;24.77;10.38;;;;;;;6.70;73.15;102219.81;5035295;28;20051;-81
2021/04/25 07:18:52;;;;;;;25.83;11.85;;;;;;;6.88;70.91;102230.06;5047058;28;20033;-81
2021/04/25 07:21:17;;;;;;;31.48;14.68;;;;;;;6.93;68.98;102227.25;5050261;28;20044;-81
2021/04/25 07:23:42;;;;;;;32.95;15.32;;;;;;;7.03;68.44;102223.47;5030769;28;20056;-81
2021/04/25 07:26:09;;;;;;;39.15;19.20;;;;;;;7.15;65.74;102228.47;5044123;28;20059;-80
2021/04/25 07:28:37;;;;;;;40.05;20.60;;;;;;;7.09;66.27;102233.97;5050646;28;20091;-81
2021/04/25 07:31:02;;;;;;;28.60;15.57;;;;;;;7.13;68.03;102226.75;5063764;28;20032;-80
2021/04/25 07:33:29;;;;;;;27.85;11.23;;;;;;;7.27;68.55;102227.28;5055369;28;20024;-81
2021/04/25 07:35:54;;;;;;;36.13;14.38;;;;;;;7.25;66.52;102224.63;5051680;28;20051;-81
2021/04/25 07:38:20;;;;;;;23.38;10.93;;;;;;;7.25;67.49;102239.78;5029341;28;20040;-83
2021/04/25 07:40:45;;;;;;;26.05;11.77;;;;;;;7.30;67.84;102236.06;5050933;28;20083;-80
2021/04/25 07:43:10;;;;;;;23.98;9.43;;;;;;;7.35;67.77;102232.38;5049432;28;20025;-82
2021/04/25 07:45:36;;;;;;;20.42;9.82;;;;;;;7.45;67.71;102225.91;5049133;28;20510;-81
2021/04/25 07:48:02;;;;;;;23.35;9.88;;;;;;;7.39;67.87;102229.63;5035277;28;20033;-81
2021/04/25 07:50:27;;;;;;;23.70;12.40;;;;;;;7.43;67.53;102228.59;5048543;28;20040;-82
2021/04/25 07:52:53;;;;;;;29.17;13.68;;;;;;;7.58;67.57;102232.66;5034215;28;20017;-83
2021/04/25 07:55:19;;;;;;;35.05;15.10;;;;;;;7.61;65.54;102232.56;5049624;28;20072;-82
2021/04/25 07:57:44;;;;;;;26.55;14.40;;;;;;;7.50;64.46;102232.88;5049841;28;20076;-80
2021/04/25 08:00:12;;;;;;;37.28;19.05;;;;;;;7.59;64.35;102235.25;5047397;28;20029;-81
2021/04/25 08:02:38;;;;;;;38.55;16.88;;;;;;;7.57;64.99;102236.25;5049022;28;20119;-82
2021/04/25 08:05:05;;;;;;;26.50;13.20;;;;;;;7.55;65.24;102230.94;5049932;28;20175;-82
2021/04/25 08:07:30;;;;;;;31.05;15.88;;;;;;;7.62;64.41;102228.97;5049533;28;20038;-83
2021/04/25 08:09:55;;;;;;;30.90;15.82;;;;;;;7.61;63.48;102225.41;5050760;28;20021;-81
2021/04/25 08:12:21;;;;;;;29.45;13.15;;;;;;;7.73;64.43;102232.22;5050589;28;20033;-82
2021/04/25 08:14:47;;;;;;;32.38;13.45;;;;;;;7.82;63.98;102226.63;5050576;28;20044;-81
2021/04/25 08:17:12;;;;;;;28.77;13.18;;;;;;;7.88;65.22;102233.59;5051091;28;20041;-81
2021/04/25 08:19:38;;;;;;;31.17;14.43;;;;;;;8.01;64.35;102235.84;5033516;28;20025;-81
2021/04/25 08:22:05;;;;;;;35.00;17.38;;;;;;;8.05;63.27;102232.16;5052778;28;20055;-81
2021/04/25 08:24:31;;;;;;;34.92;14.32;;;;;;;8.08;61.19;102236.56;5030819;28;20021;-81
2021/04/25 08:26:56;;;;;;;34.97;15.02;;;;;;;8.00;61.95;102239.44;5034658;28;20039;-81
2021/04/25 08:29:21;;;;;;;28.40;13.32;;;;;;;8.04;63.25;102233.06;5039317;28;20035;-82
2021/04/25 08:31:47;;;;;;;34.42;16.98;;;;;;;8.04;62.95;102238.44;5029678;28;20123;-82
2021/04/25 08:34:12;;;;;;;46.92;27.00;;;;;;;8.18;61.08;102231.78;5065323;28;20029;-81
2021/04/25 08:36:38;;;;;;;51.28;27.80;;;;;;;8.11;61.33;102231.97;5061546;28;20050;-83
2021/04/25 08:39:05;;;;;;;45.25;24.60;;;;;;;8.17;61.42;102236.25;5046155;28;20107;-80
2021/04/25 08:41:30;;;;;;;32.58;20.70;;;;;;;8.24;59.79;102244.97;5048238;28;20033;-81
2021/04/25 08:43:59;;;;;;;41.50;19.02;;;;;;;8.43;60.25;102252.44;5031390;28;20033;-82
2021/04/25 08:46:26;;;;;;;33.95;17.13;;;;;;;8.69;59.45;102243.59;5049594;28;20526;-81
2021/04/25 08:48:52;;;;;;;29.77;16.85;;;;;;;8.77;56.30;102251.34;5033108;28;20104;-81
2021/04/25 08:51:18;;;;;;;27.98;15.27;;;;;;;8.72;54.38;102248.81;5052208;28;20068;-81
2021/04/25 08:53:45;;;;;;;28.63;15.35;;;;;;;8.78;56.03;102253.09;5050390;28;20025;-81
2021/04/25 08:56:12;;;;;;;33.92;15.07;;;;;;;8.91;55.63;102254.47;5053556;28;20494;-81
2021/04/25 08:58:38;;;;;;;24.80;15.27;;;;;;;9.02;55.39;102256.78;5036621;28;20124;-85
2021/04/25 09:01:05;;;;;;;29.63;15.43;;;;;;;9.23;53.81;102248.03;5050275;28;20097;-81
2021/04/25 09:03:31;;;;;;;22.25;13.63;;;;;;;10.08;53.49;102252.97;5034770;28;20710;-81
2021/04/25 09:05:59;;;;;;;19.75;12.82;;;;;;;10.21;50.28;102240.00;5030493;28;20136;-82
2021/04/25 09:08:44;;;;;;;29.75;15.02;;;;;;;9.82;52.05;102240.53;5028154;28;20055;-82
2021/04/25 09:11:25;;;;;;;18.42;10.10;;;;;;;9.98;50.03;102240.84;5031808;28;20045;-83
2021/04/25 09:14:18;;;;;;;14.18;8.50;;;;;;;10.02;50.32;102239.78;5049141;28;20029;-84
2021/04/25 09:16:54;;;;;;;14.50;6.90;;;;;;;10.03;51.64;102244.22;5027550;28;20057;-82
2021/04/25 09:19:21;;;;;;;17.52;8.15;;;;;;;9.89;50.26;102238.50;5036057;28;20052;-81
2021/04/25 09:21:54;;;;;;;14.57;8.45;;;;;;;9.94;51.42;102234.69;5045900;28;20029;-82
2021/04/25 09:24:21;;;;;;;16.35;10.43;;;;;;;10.26;51.08;102244.25;5054818;28;20119;-83
2021/04/25 09:26:47;;;;;;;16.95;8.52;;;;;;;10.21;49.42;102240.00;5053307;28;20036;-81
2021/04/25 09:29:13;;;;;;;14.65;8.50;;;;;;;10.24;50.77;102238.06;5049582;28;20431;-82
2021/04/25 09:31:40;;;;;;;16.98;8.13;;;;;;;10.25;48.00;102237.13;5049304;28;20032;-83
2021/04/25 09:34:05;;;;;;;15.40;8.30;;;;;;;10.15;49.49;102230.34;5049700;28;20033;-81
2021/04/25 09:36:31;;;;;;;18.48;8.25;;;;;;;10.30;48.75;102235.16;5051323;28;20048;-82
2021/04/25 09:39:14;;;;;;;17.42;11.43;;;;;;;11.05;49.47;102224.91;5033305;28;20035;-81
2021/04/25 09:41:40;;;;;;;14.63;9.27;;;;;;;11.76;46.94;102226.28;5036655;28;20037;-82
2021/04/25 09:44:07;;;;;;;22.10;12.43;;;;;;;12.23;44.29;102220.50;5035698;28;20401;-82
2021/04/25 09:47:01;;;;;;;18.73;10.32;;;;;;;12.37;42.95;102212.66;5036445;28;20053;-82
2021/04/25 09:49:39;;;;;;;16.75;9.40;;;;;;;12.82;44.26;102225.72;5032051;28;20100;-83
2021/04/25 09:52:06;;;;;;;14.45;8.07;;;;;;;12.86;42.53;102225.47;5047325;28;20052;-82
2021/04/25 09:54:31;;;;;;;14.50;7.00;;;;;;;12.88;42.31;102225.41;5051248;28;20075;-83
2021/04/25 09:56:57;;;;;;;14.82;6.55;;;;;;;12.76;43.01;102226.91;5051565;28;20452;-82
2021/04/25 09:59:23;;;;;;;13.50;6.20;;;;;;;12.58;42.32;102222.41;5032291;28;20033;-82
2021/04/25 10:01:59;;;;;;;25.17;12.65;;;;;;;12.88;41.64;102215.50;5034651;28;20025;-83
2021/04/25 10:04:29;;;;;;;19.38;8.07;;;;;;;12.89;42.31;102214.56;5050911;28;20031;-82
2021/04/25 10:06:56;;;;;;;34.83;15.85;;;;;;;13.14;40.82;102216.03;5045757;28;20037;-82
2021/04/25 10:09:22;;;;;;;15.85;7.60;;;;;;;13.22;41.17;102219.19;5049368;28;20043;-81
2021/04/25 10:11:49;;;;;;;15.65;8.13;;;;;;;13.40;42.29;102229.03;5034387;28;20025;-82
2021/04/25 10:14:14;;;;;;;13.38;5.75;;;;;;;13.24;41.00;102223.56;5050236;28;20044;-84
2021/04/25 10:16:42;;;;;;;13.23;7.28;;;;;;;13.33;41.08;102219.53;5047198;28;20036;-85
2021/04/25 10:19:08;;;;;;;11.02;6.13;;;;;;;13.26;40.49;102210.00;5031778;28;20040;-83
2021/04/25 10:21:35;;;;;;;10.85;5.35;;;;;;;13.17;40.63;102207.78;5031728;28;20056;-83
2021/04/25 10:24:03;;;;;;;13.82;6.75;;;;;;;13.22;41.83;102200.31;5051835;28;20032;-85
2021/04/25 10:26:33;;;;;;;13.55;6.25;;;;;;;13.32;40.74;102194.38;5035126;28;20040;-82
2021/04/25 10:29:04;;;;;;;13.43;6.55;;;;;;;13.24;41.68;102201.13;5046944;28;20028;-83
2021/04/25 10:31:35;;;;;;;14.40;6.88;;;;;;;13.63;42.18;102200.84;5047510;28;20036;-82
2021/04/25 10:34:17;;;;;;;10.07;3.70;;;;;;;13.24;38.88;102195.72;5047800;28;20091;-85
2021/04/25 10:36:45;;;;;;;14.60;6.85;;;;;;;13.14;40.75;102194.47;5041944;28;20037;-82
2021/04/25 10:39:44;;;;;;;17.13;8.45;;;;;;;13.23;41.69;102192.16;5034349;28;20037;-82
2021/04/25 10:42:33;;;;;;;11.10;5.85;;;;;;;13.11;40.61;102199.97;5028058;28;20033;-82
2021/04/25 10:47:38;;;;;;;10.48;4.75;;;;;;;13.17;40.83;102188.91;5037054;28;20036;-82
2021/04/25 10:50:09;;;;;;;10.95;5.68;;;;;;;13.28;41.13;102178.41;5052346;28;20045;-82
2021/04/25 10:52:36;;;;;;;16.65;8.43;;;;;;;12.99;40.27;102171.81;5029722;28;20437;-81
2021/04/25 10:55:21;;;;;;;15.30;6.68;;;;;;;12.90;44.33;102178.53;5051355;28;20064;-83
2021/04/25 10:58:07;;;;;;;17.00;5.50;;;;;;;13.05;40.58;102170.63;5031388;28;20033;-82
2021/04/25 11:00:42;;;;;;;10.27;5.43;;;;;;;13.16;41.83;102170.97;5051598;28;20037;-83
2021/04/25 11:03:11;;;;;;;14.25;6.35;;;;;;;13.27;42.16;102169.47;5050398;28;20036;-83
2021/04/25 11:05:37;;;;;;;17.67;9.15;;;;;;;13.34;41.18;102164.63;5048700;28;20036;-82
2021/04/25 11:08:18;;;;;;;27.27;12.23;;;;;;;13.60;40.08;102161.41;5051994;28;20041;-83
2021/04/25 11:10:48;;;;;;;42.30;14.95;;;;;;;13.68;40.97;102159.16;5033740;28;20029;-81
2021/04/25 11:13:45;;;;;;;48.25;17.90;;;;;;;13.82;39.32;102165.66;5036355;28;20592;-82
2021/04/25 11:16:13;;;;;;;24.98;8.02;;;;;;;13.68;39.69;102158.31;5045595;28;20071;-82
2021/04/25 11:19:03;;;;;;;28.13;12.52;;;;;;;13.77;42.34;102158.66;5056956;28;20087;-82
2021/04/25 11:23:57;;;;;;;9.32;5.63;;;;;;;13.70;40.76;102149.16;5049993;28;20051;-83
2021/04/25 11:26:35;;;;;;;16.80;6.93;;;;;;;13.86;41.70;102151.03;5032850;28;20044;-83